createdAt,value
2022-08-05T08:35:06.972Z,753.75
2022-08-05T08:37:06.936Z,765.00
2022-08-05T08:45:36.258Z,765.00
2022-08-05T08:46:36.233Z,765.00
2022-08-05T08:48:06.003Z,781.88
2022-08-05T08:49:03.032Z,753.75
2022-08-05T08:50:22.760Z,781.88
2022-08-05T08:51:04.126Z,900.00
2022-08-05T08:52:04.052Z,945.00
2022-08-05T08:52:36.141Z,1035.00
2022-08-05T08:53:36.133Z,1113.75
2022-08-05T08:54:36.724Z,1096.88
2022-08-05T08:56:05.038Z,1046.25
2022-08-05T08:56:36.070Z,995.63
2022-08-05T08:57:48.378Z,995.63
2022-08-05T08:58:43.005Z,995.63
2022-08-05T08:59:36.031Z,990.00
2022-08-05T09:00:36.083Z,1018.13
2022-08-05T09:01:36.028Z,1074.38
2022-08-05T09:02:35.997Z,1035.00
2022-08-05T09:03:39.463Z,1029.38
2022-08-05T09:04:35.977Z,967.50
2022-08-05T09:05:38.468Z,821.25
2022-08-05T09:06:36.351Z,804.38
2022-08-05T09:07:40.030Z,815.63
2022-08-05T09:08:35.928Z,821.25
2022-08-05T09:09:35.907Z,781.88
2022-08-05T09:10:35.891Z,748.13
2022-08-05T09:11:51.638Z,776.25
2022-08-05T09:12:35.913Z,810.00
2022-08-05T09:14:01.189Z,894.38
2022-08-05T09:14:58.472Z,866.25
2022-08-05T09:15:37.024Z,933.75
2022-08-05T09:16:35.960Z,1046.25
2022-08-05T09:17:40.684Z,928.13
2022-08-05T09:18:38.969Z,950.63
2022-08-05T09:19:36.806Z,967.50
2022-08-05T09:20:37.201Z,995.63
2022-08-05T09:22:24.785Z,849.38
2022-08-05T09:22:36.059Z,753.75
2022-08-05T09:23:37.478Z,810.00
2022-08-05T09:24:35.699Z,860.63
2022-08-05T09:26:01.630Z,838.13
2022-08-05T09:26:35.669Z,939.38
2022-08-05T09:28:05.664Z,776.25
2022-08-05T09:28:35.655Z,781.88
2022-08-05T09:29:35.630Z,793.13
2022-08-05T09:30:35.622Z,843.75
2022-08-05T09:32:41.248Z,995.63
2022-08-05T09:32:51.177Z,916.88
2022-08-05T09:33:36.351Z,888.75
2022-08-05T09:34:35.644Z,945.00
2022-08-05T09:35:35.538Z,961.88
2022-08-05T09:36:35.551Z,933.75
2022-08-05T09:38:16.440Z,911.25
2022-08-05T09:38:35.511Z,787.50
2022-08-05T09:39:41.632Z,950.63
2022-08-05T09:40:35.526Z,1096.88
2022-08-05T09:41:39.027Z,950.63
2022-08-05T09:42:35.547Z,736.88
2022-08-05T09:43:41.104Z,703.13
2022-08-05T09:44:35.534Z,883.13
2022-08-05T09:46:07.105Z,866.25
2022-08-05T09:46:35.403Z,720.00
2022-08-05T09:56:13.621Z,928.13
2022-08-05T09:57:23.468Z,1006.88
2022-08-05T09:58:12.912Z,1051.88
2022-08-05T09:59:17.252Z,1018.13
2022-08-05T10:00:12.879Z,1023.75
2022-08-05T10:01:13.312Z,838.13
2022-08-05T10:02:12.874Z,731.25
2022-08-05T10:03:12.848Z,691.88
2022-08-05T10:08:53.778Z,871.88
2022-08-05T10:09:45.112Z,860.63
2022-08-05T10:10:44.177Z,759.38
2022-08-05T10:11:44.145Z,838.13
2022-08-05T10:16:25.250Z,1012.50
2022-08-05T10:17:37.705Z,1108.13
2022-08-05T10:18:25.210Z,1035.00
2022-08-05T10:19:46.181Z,990.00
2022-08-05T10:20:25.186Z,961.88
2022-08-05T10:21:25.186Z,967.50
2022-08-05T10:22:29.522Z,961.88
2022-08-05T12:06:10.328Z,815.63
2022-08-05T12:07:06.469Z,849.38
2022-08-05T12:08:10.131Z,860.63
2022-08-05T12:09:06.436Z,860.63
2022-08-05T12:10:09.671Z,877.50
2022-08-05T12:11:06.483Z,900.00
2022-08-05T12:12:06.375Z,956.25
2022-08-05T12:13:15.985Z,1158.75
2022-08-05T12:14:06.409Z,1282.50
2022-08-05T12:15:06.331Z,1203.75
2022-08-05T12:16:15.028Z,1057.50
2022-08-05T12:18:00.814Z,1096.88
2022-08-05T12:18:10.450Z,1102.50
2022-08-05T12:19:08.212Z,995.63
2022-08-05T12:20:27.852Z,1001.25
2022-08-05T12:21:06.247Z,1035.00
2022-08-05T12:22:09.490Z,1164.38
2022-08-05T12:23:06.221Z,1181.25
2022-08-05T12:24:07.183Z,1085.63
2022-08-05T12:25:06.177Z,984.38
2022-08-05T12:26:06.168Z,1057.50
2022-08-05T12:27:09.865Z,1063.13
2022-08-05T12:28:06.154Z,1040.63
2022-08-05T12:29:09.882Z,939.38
2022-08-05T12:30:06.148Z,973.13
2022-08-05T12:31:06.113Z,1068.75
2022-08-05T12:32:07.497Z,978.75
2022-08-05T12:33:07.410Z,866.25
2022-08-05T12:34:06.050Z,950.63
2022-08-05T12:35:06.036Z,1113.75
2022-08-05T12:36:08.573Z,961.88
2022-08-05T12:37:06.019Z,731.25
2022-08-05T12:38:06.016Z,646.88
2022-08-05T12:39:07.019Z,731.25
2022-08-05T12:40:10.965Z,770.63
2022-08-05T12:41:09.707Z,720.00
2022-08-05T12:42:05.955Z,736.88
2022-08-05T12:43:05.954Z,849.38
2022-08-05T12:44:05.913Z,1012.50
2022-08-05T12:45:08.916Z,1085.63
2022-08-05T12:46:05.887Z,1220.63
2022-08-05T12:47:05.883Z,1265.63
2022-08-05T12:48:17.595Z,1198.13
2022-08-05T12:49:13.931Z,1108.13
2022-08-05T12:50:06.454Z,1068.75
2022-08-05T12:51:05.824Z,1096.88
2022-08-05T12:52:13.746Z,1108.13
2022-08-05T12:53:05.812Z,1001.25
2022-08-05T12:54:16.758Z,793.13
2022-08-05T12:55:05.782Z,781.88
2022-08-05T12:56:05.771Z,765.00
2022-08-05T12:57:09.517Z,781.88
2022-08-05T12:58:52.494Z,708.75
2022-08-05T12:59:10.801Z,697.50
2022-08-05T13:01:57.891Z,652.50
2022-08-05T13:02:03.287Z,641.25
2022-08-05T13:02:07.199Z,624.38
2022-08-05T13:03:05.680Z,618.75
2022-08-05T13:04:07.588Z,635.63
2022-08-05T13:05:05.645Z,624.38
2022-08-05T13:06:05.635Z,618.75
2022-08-05T13:07:05.626Z,613.13
2022-08-05T13:08:05.985Z,635.63
2022-08-05T13:09:05.603Z,641.25
2022-08-05T13:10:05.589Z,675.00
2022-08-05T13:11:05.573Z,697.50
2022-08-05T13:12:05.569Z,742.50
2022-08-05T13:13:05.563Z,804.38
2022-08-05T13:14:07.678Z,894.38
2022-08-05T13:15:06.868Z,1597.50
2022-08-05T13:16:05.507Z,2503.13
2022-08-05T13:17:05.498Z,3020.63
2022-08-05T13:18:05.498Z,3088.13
2022-08-05T13:19:05.475Z,2958.75
2022-08-05T13:20:05.462Z,3054.38
2022-08-05T13:21:05.459Z,3307.50
2022-08-05T13:22:05.449Z,3155.63
2022-08-05T13:23:07.141Z,3020.63
2022-08-05T13:24:05.429Z,3093.75
2022-08-05T13:25:07.883Z,1828.13
2022-08-05T13:26:05.402Z,2452.50
2022-08-05T13:27:05.393Z,2790.00
2022-08-05T13:28:05.397Z,2491.88
2022-08-05T13:29:05.462Z,2778.75
2022-08-05T13:30:35.459Z,928.13
2022-08-05T13:31:14.091Z,1085.63
2022-08-05T13:32:05.659Z,2936.25
2022-08-05T13:33:05.344Z,2452.50
2022-08-05T13:34:21.874Z,1541.25
2022-08-05T13:35:05.301Z,945.00
2022-08-05T13:36:05.402Z,2424.38
2022-08-05T13:37:05.281Z,1102.50
2022-08-05T13:38:06.031Z,2165.63
2022-08-05T13:39:08.506Z,2767.50
2022-08-05T13:40:15.146Z,3020.63
2022-08-05T13:41:05.910Z,3172.50
2022-08-05T13:42:05.236Z,3555.00
2022-08-05T13:43:05.229Z,3976.88
2022-08-05T13:44:05.215Z,2536.88
2022-08-05T13:45:05.207Z,3093.75
2022-08-05T13:46:05.189Z,2362.50
2022-08-05T13:47:09.011Z,2053.13
2022-08-05T13:48:09.223Z,1366.88
2022-08-05T13:49:05.368Z,1850.63
2022-08-05T13:50:08.518Z,1389.38
2022-08-05T13:51:05.148Z,2778.75
2022-08-05T13:52:05.131Z,2463.75
2022-08-05T13:53:09.078Z,2154.38
2022-08-05T13:54:11.795Z,1558.13
2022-08-05T13:55:07.464Z,1766.25
2022-08-05T13:56:05.087Z,1884.38
2022-08-05T13:57:05.090Z,1445.63
2022-08-05T13:58:05.073Z,2115.00
2022-08-05T13:59:06.030Z,2092.50
2022-08-05T14:00:05.049Z,2019.38
2022-08-05T14:01:05.059Z,1693.13
2022-08-05T14:02:05.031Z,866.25
2022-08-05T14:03:05.123Z,928.13
2022-08-05T14:04:05.013Z,1321.88
2022-08-05T14:05:05.008Z,1546.88
2022-08-05T14:06:26.836Z,826.88
2022-08-05T14:07:25.000Z,736.88
2022-08-05T14:08:20.451Z,731.25
2022-08-05T14:09:08.237Z,945.00
2022-08-05T14:10:04.959Z,849.38
2022-08-05T14:11:20.237Z,708.75
2022-08-05T14:13:32.256Z,855.00
2022-08-05T14:14:33.778Z,1091.25
2022-08-05T14:16:08.066Z,956.25
2022-08-05T14:16:31.485Z,2925.00
2022-08-05T14:17:31.609Z,1749.38
2022-08-05T14:18:31.491Z,2261.25
2022-08-05T14:19:31.452Z,2340.00
2022-08-05T14:20:31.442Z,849.38
2022-08-05T14:22:09.974Z,1018.13
2022-08-05T14:22:34.282Z,2081.25
2022-08-05T14:23:31.893Z,1192.50
2022-08-05T14:24:31.411Z,2148.75
2022-08-05T14:25:31.389Z,2531.25
2022-08-05T14:26:35.813Z,2615.63
2022-08-05T14:27:31.378Z,2986.88
2022-08-05T14:28:31.430Z,2593.13
2022-08-05T14:29:31.456Z,961.88
2022-08-05T14:30:31.342Z,2565.00
2022-08-05T14:32:03.026Z,2784.38
2022-08-05T14:32:31.483Z,2823.75
2022-08-05T14:33:32.687Z,2638.13
2022-08-05T14:34:35.198Z,3026.25
2022-08-05T14:35:49.964Z,1102.50
2022-08-05T14:36:31.291Z,1080.00
2022-08-05T14:37:45.558Z,1046.25
2022-08-05T14:38:34.198Z,1147.50
2022-08-05T14:39:31.302Z,1355.63
2022-08-05T14:40:31.242Z,1383.75
2022-08-05T14:41:31.247Z,1091.25
2022-08-05T14:42:31.418Z,1243.13
2022-08-05T14:44:02.551Z,2846.25
2022-08-05T14:44:31.213Z,945.00
2022-08-05T14:45:31.196Z,826.88
2022-08-05T14:46:31.195Z,905.63
2022-08-05T14:48:03.916Z,675.00
2022-08-05T14:52:12.288Z,950.63
2022-08-05T14:53:12.085Z,1698.75
2022-08-05T14:54:28.160Z,2823.75
2022-08-05T14:55:15.424Z,2908.13
2022-08-05T14:56:12.026Z,2317.50
2022-08-05T14:57:13.563Z,2829.38
2022-08-05T14:58:13.855Z,2688.75
2022-08-05T14:59:12.720Z,1850.63
2022-08-05T15:00:11.998Z,2452.50
2022-08-05T15:01:16.163Z,2458.13
2022-08-05T15:02:15.809Z,1158.75
2022-08-05T15:03:11.972Z,855.00
2022-08-05T15:04:11.956Z,787.50
2022-08-05T15:38:33.130Z,984.38
2022-08-05T15:40:59.098Z,725.63
2022-08-05T15:41:03.535Z,568.13
2022-08-05T16:44:54.313Z,1237.50
2022-08-05T16:46:06.669Z,1468.13
2022-08-05T16:46:55.985Z,1305.00
